createdAt,value
2023-04-03T00:00:59.823Z,95292.00
2023-04-03T00:01:59.850Z,95296.00
2023-04-03T00:02:59.916Z,95294.00
2023-04-03T00:03:59.913Z,95294.00
2023-04-03T00:04:59.959Z,95296.00
2023-04-03T00:06:00.004Z,95296.00
2023-04-03T00:07:00.012Z,95294.00
2023-04-03T00:08:00.062Z,95298.00
2023-04-03T00:09:00.031Z,95298.00
2023-04-03T00:10:00.145Z,95298.00
2023-04-03T00:11:00.120Z,95300.00
2023-04-03T00:12:00.138Z,95300.00
2023-04-03T00:13:00.144Z,95302.00
2023-04-03T00:14:00.148Z,95306.00
2023-04-03T00:15:00.415Z,95304.00
2023-04-03T00:16:00.224Z,95304.00
2023-04-03T00:17:00.261Z,95306.00
2023-04-03T00:18:00.261Z,95308.00
2023-04-03T00:19:00.252Z,95306.00
2023-04-03T00:20:00.301Z,95306.00
2023-04-03T00:21:00.270Z,95309.00
2023-04-03T00:22:00.267Z,95304.00
2023-04-03T00:23:00.317Z,95308.00
2023-04-03T00:24:00.361Z,95306.00
2023-04-03T00:25:00.360Z,95308.00
2023-04-03T00:26:00.398Z,95308.00
2023-04-03T00:27:00.406Z,95309.00
2023-04-03T00:28:00.409Z,95317.00
2023-04-03T00:29:00.396Z,95313.00
2023-04-03T00:30:00.425Z,95317.00
2023-04-03T00:31:00.506Z,95317.00
2023-04-03T00:32:00.540Z,95317.00
2023-04-03T00:33:00.640Z,95319.00
2023-04-03T00:34:00.653Z,95317.00
2023-04-03T00:35:00.658Z,95317.00
2023-04-03T00:36:00.725Z,95319.00
2023-04-03T00:37:00.812Z,95317.00
2023-04-03T00:38:00.697Z,95317.00
2023-04-03T00:39:00.690Z,95319.00
2023-04-03T00:40:00.763Z,95317.00
2023-04-03T00:41:00.749Z,95317.00
2023-04-03T00:42:00.765Z,95319.00
2023-04-03T00:43:00.809Z,95319.00
2023-04-03T00:44:00.875Z,95319.00
2023-04-03T00:45:00.871Z,95319.00
2023-04-03T00:46:00.917Z,95323.00
2023-04-03T00:47:00.908Z,95325.00
2023-04-03T00:48:00.952Z,95323.00
2023-04-03T00:49:00.896Z,95323.00
2023-04-03T00:50:00.925Z,95325.00
2023-04-03T00:51:00.929Z,95327.00
2023-04-03T00:52:00.939Z,95329.00
2023-04-03T00:53:00.956Z,95327.00
2023-04-03T00:54:00.979Z,95329.00
2023-04-03T00:55:00.933Z,95329.00
2023-04-03T00:56:00.954Z,95331.00
2023-04-03T00:57:01.007Z,95331.00
2023-04-03T00:58:00.972Z,95333.00
2023-04-03T00:59:00.945Z,95333.00
2023-04-03T01:00:01.005Z,95331.00
2023-04-03T01:01:01.049Z,95331.00
2023-04-03T01:02:01.185Z,95331.00
2023-04-03T01:03:01.166Z,95333.00
2023-04-03T01:04:01.200Z,95331.00
2023-04-03T01:05:01.173Z,95333.00
2023-04-03T01:06:01.237Z,95333.00
2023-04-03T01:07:01.276Z,95333.00
2023-04-03T01:08:01.298Z,95329.00
2023-04-03T01:09:01.389Z,95331.00
2023-04-03T01:10:01.407Z,95333.00
2023-04-03T01:11:01.494Z,95337.00
2023-04-03T01:12:01.529Z,95335.00
2023-04-03T01:13:01.543Z,95337.00
2023-04-03T01:14:01.548Z,95337.00
2023-04-03T01:15:01.554Z,95339.00
2023-04-03T01:16:01.672Z,95339.00
2023-04-03T01:17:01.653Z,95341.00
2023-04-03T01:18:01.716Z,95337.00
2023-04-03T01:19:01.706Z,95337.00
2023-04-03T01:20:01.674Z,95341.00
2023-04-03T01:21:01.758Z,95341.00
2023-04-03T01:22:01.750Z,95343.00
2023-04-03T01:23:01.771Z,95345.00
2023-04-03T01:24:01.823Z,95341.00
2023-04-03T01:25:01.837Z,95345.00
2023-04-03T01:26:01.838Z,95343.00
2023-04-03T01:27:01.843Z,95345.00
2023-04-03T01:28:01.849Z,95345.00
2023-04-03T01:29:01.865Z,95345.00
2023-04-03T01:30:01.905Z,95347.00
2023-04-03T01:31:01.889Z,95347.00
2023-04-03T01:32:01.893Z,95349.00
2023-04-03T01:33:02.022Z,95349.00
2023-04-03T01:34:02.038Z,95353.00
2023-04-03T01:35:02.035Z,95351.00
2023-04-03T01:36:02.112Z,95347.00
2023-04-03T01:37:02.098Z,95353.00
2023-04-03T01:38:02.111Z,95353.00
2023-04-03T01:39:02.105Z,95353.00
2023-04-03T01:40:02.148Z,95353.00
2023-04-03T01:41:02.202Z,95356.00
2023-04-03T01:42:02.209Z,95355.00
2023-04-03T01:43:02.229Z,95356.00
2023-04-03T01:44:02.214Z,95355.00
2023-04-03T01:45:02.248Z,95356.00
2023-04-03T01:46:02.271Z,95353.00
2023-04-03T01:47:02.262Z,95356.00
2023-04-03T01:48:02.310Z,95355.00
2023-04-03T01:49:02.266Z,95356.00
2023-04-03T01:50:02.303Z,95355.00
2023-04-03T01:51:02.345Z,95355.00
2023-04-03T01:52:02.313Z,95358.00
2023-04-03T01:53:02.345Z,95358.00
2023-04-03T01:54:02.347Z,95355.00
2023-04-03T01:55:02.336Z,95355.00
2023-04-03T01:56:02.361Z,95356.00
2023-04-03T01:57:02.432Z,95353.00
2023-04-03T01:58:02.417Z,95353.00
2023-04-03T01:59:02.413Z,95355.00
2023-04-03T02:00:02.438Z,95355.00
2023-04-03T02:01:02.474Z,95356.00
2023-04-03T02:02:02.452Z,95356.00
2023-04-03T02:03:02.545Z,95351.00
2023-04-03T02:04:02.487Z,95355.00
2023-04-03T02:05:02.451Z,95356.00
2023-04-03T02:06:02.468Z,95355.00
2023-04-03T02:07:02.482Z,95351.00
2023-04-03T02:08:02.480Z,95355.00
2023-04-03T02:09:02.533Z,95355.00
2023-04-03T02:10:02.614Z,95355.00
2023-04-03T02:11:02.666Z,95351.00
2023-04-03T02:12:02.716Z,95355.00
2023-04-03T02:13:02.770Z,95349.00
2023-04-03T02:14:02.791Z,95351.00
2023-04-03T02:15:02.777Z,95351.00
2023-04-03T02:16:02.776Z,95355.00
2023-04-03T02:17:02.850Z,95351.00
2023-04-03T02:18:02.807Z,95351.00
2023-04-03T02:19:03.845Z,95351.00
2023-04-03T02:20:02.828Z,95349.00
2023-04-03T02:21:02.786Z,95351.00
2023-04-03T02:22:02.806Z,95351.00
2023-04-03T02:23:02.783Z,95349.00
2023-04-03T02:24:02.781Z,95353.00
2023-04-03T02:25:02.746Z,95351.00
2023-04-03T02:26:02.741Z,95351.00
2023-04-03T02:27:02.751Z,95349.00
2023-04-03T02:28:02.730Z,95349.00
2023-04-03T02:29:02.739Z,95355.00
2023-04-03T02:30:02.720Z,95353.00
2023-04-03T02:31:02.750Z,95355.00
2023-04-03T02:32:02.682Z,95351.00
2023-04-03T02:33:02.726Z,95355.00
2023-04-03T02:34:02.695Z,95351.00
2023-04-03T02:35:02.720Z,95355.00
2023-04-03T02:36:02.817Z,95349.00
2023-04-03T02:37:02.712Z,95353.00
2023-04-03T02:38:02.687Z,95353.00
2023-04-03T02:39:02.735Z,95353.00
2023-04-03T02:40:02.787Z,95356.00
2023-04-03T02:41:02.747Z,95358.00
2023-04-03T02:42:02.768Z,95356.00
2023-04-03T02:43:02.802Z,95355.00
2023-04-03T02:44:02.890Z,95358.00
2023-04-03T02:45:02.938Z,95358.00
2023-04-03T02:46:02.974Z,95355.00
2023-04-03T02:47:02.935Z,95361.00
2023-04-03T02:48:03.028Z,95358.00
2023-04-03T02:49:03.080Z,95356.00
2023-04-03T02:50:03.073Z,95355.00
2023-04-03T02:51:03.176Z,95355.00
2023-04-03T02:52:03.149Z,95358.00
2023-04-03T02:53:03.173Z,95356.00
2023-04-03T02:54:03.196Z,95358.00
2023-04-03T02:55:03.157Z,95356.00
2023-04-03T02:56:03.208Z,95356.00
2023-04-03T02:57:03.257Z,95356.00
2023-04-03T02:58:03.321Z,95358.00
2023-04-03T02:59:03.363Z,95356.00
2023-04-03T03:00:03.402Z,95358.00
2023-04-03T03:01:03.391Z,95358.00
2023-04-03T03:02:03.463Z,95361.00
2023-04-03T03:03:03.445Z,95363.00
2023-04-03T03:04:03.474Z,95358.00
2023-04-03T03:05:03.472Z,95361.00
2023-04-03T03:06:03.534Z,95358.00
2023-04-03T03:07:03.567Z,95363.00
2023-04-03T03:08:03.647Z,95363.00
2023-04-03T03:09:03.715Z,95361.00
2023-04-03T03:10:03.823Z,95361.00
2023-04-03T03:11:03.824Z,95364.00
2023-04-03T03:12:03.842Z,95363.00
2023-04-03T03:13:03.887Z,95363.00
2023-04-03T03:14:03.902Z,95361.00
2023-04-03T03:15:03.899Z,95363.00
2023-04-03T03:16:04.022Z,95364.00
2023-04-03T03:17:03.958Z,95363.00
2023-04-03T03:18:04.037Z,95361.00
2023-04-03T03:19:04.027Z,95361.00
2023-04-03T03:20:04.034Z,95363.00
2023-04-03T03:21:04.064Z,95363.00
2023-04-03T03:22:04.101Z,95364.00
2023-04-03T03:23:04.177Z,95361.00
2023-04-03T03:24:04.232Z,95363.00
2023-04-03T03:25:04.286Z,95363.00
2023-04-03T03:26:04.345Z,95363.00
2023-04-03T03:27:04.406Z,95361.00
2023-04-03T03:28:04.423Z,95361.00
2023-04-03T03:29:04.415Z,95364.00
2023-04-03T03:30:04.468Z,95358.00
2023-04-03T03:31:04.605Z,95363.00
2023-04-03T03:32:04.570Z,95363.00
2023-04-03T03:33:04.693Z,95361.00
2023-04-03T03:34:04.667Z,95361.00
2023-04-03T03:35:04.652Z,95363.00
2023-04-03T03:36:04.697Z,95363.00
2023-04-03T03:37:04.670Z,95361.00
2023-04-03T03:38:04.698Z,95358.00
2023-04-03T03:39:04.712Z,95361.00
2023-04-03T03:40:04.737Z,95361.00
2023-04-03T03:41:04.805Z,95358.00
2023-04-03T03:42:04.789Z,95363.00
2023-04-03T03:43:04.860Z,95363.00
2023-04-03T03:44:04.924Z,95364.00
2023-04-03T03:45:05.014Z,95366.00
2023-04-03T03:46:05.055Z,95364.00
2023-04-03T03:47:05.084Z,95368.00
2023-04-03T03:48:05.170Z,95370.00
2023-04-03T03:49:05.124Z,95366.00
2023-04-03T03:50:05.134Z,95366.00
2023-04-03T03:51:05.180Z,95370.00
2023-04-03T03:52:05.138Z,95372.00
2023-04-03T03:53:05.162Z,95372.00
2023-04-03T03:54:05.192Z,95374.00
2023-04-03T03:55:05.251Z,95374.00
2023-04-03T03:56:05.308Z,95370.00
2023-04-03T03:57:05.341Z,95368.00
2023-04-03T03:58:05.281Z,95366.00
2023-04-03T03:59:05.288Z,95364.00
2023-04-03T04:00:05.323Z,95370.00
2023-04-03T04:01:05.346Z,95366.00
2023-04-03T04:02:05.411Z,95370.00
2023-04-03T04:03:05.427Z,95372.00
2023-04-03T04:04:05.392Z,95370.00
2023-04-03T04:05:05.428Z,95372.00
2023-04-03T04:06:05.485Z,95370.00
2023-04-03T04:07:05.493Z,95368.00
2023-04-03T04:08:05.544Z,95372.00
2023-04-03T04:09:05.563Z,95372.00
2023-04-03T04:10:05.608Z,95370.00
2023-04-03T04:11:05.634Z,95370.00
2023-04-03T04:12:05.622Z,95368.00
2023-04-03T04:13:05.635Z,95368.00
2023-04-03T04:14:05.664Z,95368.00
2023-04-03T04:15:05.684Z,95370.00
2023-04-03T04:16:05.750Z,95370.00
2023-04-03T04:17:05.817Z,95368.00
2023-04-03T04:18:05.855Z,95368.00
2023-04-03T04:19:07.660Z,95368.00
2023-04-03T04:20:05.853Z,95364.00
2023-04-03T04:21:05.899Z,95368.00
2023-04-03T04:22:05.857Z,95368.00
2023-04-03T04:23:05.844Z,95368.00
2023-04-03T04:24:05.858Z,95368.00
2023-04-03T04:25:05.824Z,95370.00
2023-04-03T04:26:05.828Z,95368.00
2023-04-03T04:27:05.828Z,95368.00
2023-04-03T04:28:05.840Z,95366.00
2023-04-03T04:29:05.786Z,95368.00
2023-04-03T04:30:05.791Z,95368.00
2023-04-03T04:31:05.853Z,95372.00
2023-04-03T04:32:05.776Z,95374.00
2023-04-03T04:33:05.819Z,95372.00
2023-04-03T04:34:05.768Z,95374.00
2023-04-03T04:35:05.777Z,95374.00
2023-04-03T04:36:05.879Z,95374.00
2023-04-03T04:37:05.811Z,95374.00
2023-04-03T04:38:05.788Z,95376.00
2023-04-03T04:39:05.728Z,95378.00
2023-04-03T04:40:05.731Z,95378.00
2023-04-03T04:41:05.716Z,95376.00
2023-04-03T04:42:05.722Z,95378.00
2023-04-03T04:43:05.696Z,95378.00
2023-04-03T04:44:05.700Z,95380.00
2023-04-03T04:45:05.689Z,95382.00
2023-04-03T04:46:05.745Z,95384.00
2023-04-03T04:47:05.630Z,95382.00
2023-04-03T04:48:05.728Z,95384.00
2023-04-03T04:49:05.646Z,95382.00
2023-04-03T04:50:05.633Z,95384.00
2023-04-03T04:51:05.660Z,95386.00
2023-04-03T04:52:05.631Z,95386.00
2023-04-03T04:53:05.610Z,95386.00
2023-04-03T04:54:05.616Z,95384.00
2023-04-03T04:55:05.623Z,95386.00
2023-04-03T04:56:05.633Z,95386.00
2023-04-03T04:57:05.612Z,95386.00
2023-04-03T04:58:05.568Z,95390.00
2023-04-03T04:59:05.582Z,95388.00
2023-04-03T05:00:05.600Z,95388.00
2023-04-03T05:02:33.257Z,95384.00
2023-04-03T05:03:25.614Z,95388.00
2023-04-03T05:04:25.680Z,95390.00
2023-04-03T05:05:25.597Z,95386.00
2023-04-03T05:06:25.587Z,95388.00
2023-04-03T05:07:25.598Z,95388.00
2023-04-03T05:08:25.554Z,95390.00
2023-04-03T05:09:25.588Z,95390.00
2023-04-03T05:10:25.631Z,95388.00
2023-04-03T05:11:25.578Z,95390.00
2023-04-03T05:12:26.359Z,95394.00
2023-04-03T05:13:25.559Z,95388.00
2023-04-03T05:14:25.521Z,95390.00
2023-04-03T05:15:25.576Z,95390.00
2023-04-03T05:16:25.621Z,95390.00
2023-04-03T05:17:25.589Z,95388.00
2023-04-03T05:18:25.518Z,95388.00
2023-04-03T05:19:25.549Z,95394.00
2023-04-03T05:20:25.577Z,95394.00
2023-04-03T05:21:25.495Z,95396.00
2023-04-03T05:22:25.501Z,95400.00
2023-04-03T05:23:25.540Z,95398.00
2023-04-03T05:24:25.625Z,95396.00
2023-04-03T05:25:27.182Z,95398.00
2023-04-03T05:26:25.738Z,95400.00
2023-04-03T05:27:25.731Z,95396.00
2023-04-03T05:28:25.747Z,95396.00
2023-04-03T05:29:25.755Z,95396.00
2023-04-03T05:30:25.803Z,95394.00
2023-04-03T05:31:25.856Z,95398.00
2023-04-03T05:32:25.912Z,95398.00
2023-04-03T05:33:25.882Z,95396.00
2023-04-03T05:34:25.890Z,95400.00
2023-04-03T05:35:25.955Z,95400.00
2023-04-03T05:36:26.008Z,95403.00
2023-04-03T05:37:25.962Z,95403.00
2023-04-03T05:38:26.027Z,95407.00
2023-04-03T05:39:26.030Z,95403.00
2023-04-03T05:40:26.127Z,95405.00
2023-04-03T05:41:26.102Z,95407.00
2023-04-03T05:42:26.078Z,95411.00
2023-04-03T05:43:26.109Z,95411.00
2023-04-03T05:44:26.121Z,95411.00
2023-04-03T05:45:26.186Z,95409.00
2023-04-03T05:47:46.144Z,95413.00
2023-04-03T05:48:46.086Z,95417.00
2023-04-03T05:49:46.060Z,95417.00
2023-04-03T05:50:46.046Z,95427.00
2023-04-03T05:51:46.039Z,95427.00
2023-04-03T05:52:45.996Z,95425.00
2023-04-03T05:53:46.016Z,95429.00
2023-04-03T05:54:46.013Z,95429.00
2023-04-03T05:55:46.026Z,95433.00
2023-04-03T05:56:46.029Z,95433.00
2023-04-03T05:57:45.977Z,95431.00
2023-04-03T05:58:45.976Z,95437.00
2023-04-03T05:59:45.957Z,95431.00
2023-04-03T06:00:45.948Z,95437.00
2023-04-03T06:01:46.013Z,95435.00
2023-04-03T06:02:46.106Z,95437.00
2023-04-03T06:03:46.120Z,95435.00
2023-04-03T06:04:46.055Z,95431.00
2023-04-03T06:05:45.947Z,95433.00
2023-04-03T06:06:45.974Z,95435.00
2023-04-03T06:07:45.908Z,95433.00
2023-04-03T06:08:45.991Z,95433.00
2023-04-03T06:09:45.912Z,95433.00
2023-04-03T06:10:45.924Z,95435.00
2023-04-03T06:11:46.020Z,95433.00
2023-04-03T06:12:45.906Z,95437.00
2023-04-03T06:13:45.926Z,95435.00
2023-04-03T06:14:45.921Z,95435.00
2023-04-03T06:15:45.946Z,95437.00
2023-04-03T06:16:45.997Z,95435.00
2023-04-03T06:17:45.889Z,95437.00
2023-04-03T06:18:45.868Z,95441.00
2023-04-03T06:19:45.966Z,95439.00
2023-04-03T06:20:45.860Z,95439.00
2023-04-03T06:21:45.884Z,95437.00
2023-04-03T06:22:45.921Z,95435.00
2023-04-03T06:23:45.908Z,95441.00
2023-04-03T06:24:45.999Z,95439.00
2023-04-03T06:25:45.984Z,95439.00
2023-04-03T06:26:46.016Z,95439.00
2023-04-03T06:27:46.128Z,95435.00
2023-04-03T06:28:46.125Z,95441.00
2023-04-03T06:29:46.142Z,95437.00
2023-04-03T06:30:46.351Z,95435.00
2023-04-03T06:31:46.243Z,95435.00
2023-04-03T06:32:46.505Z,95439.00
2023-04-03T06:33:46.384Z,95439.00
2023-04-03T06:34:46.476Z,95437.00
2023-04-03T06:35:46.489Z,95439.00
2023-04-03T06:36:46.599Z,95439.00
2023-04-03T06:37:46.718Z,95441.00
2023-04-03T06:38:46.733Z,95437.00
2023-04-03T06:39:46.729Z,95435.00
2023-04-03T06:40:46.831Z,95437.00
2023-04-03T06:41:47.044Z,95437.00
2023-04-03T06:42:46.948Z,95437.00
2023-04-03T06:43:47.069Z,95435.00
2023-04-03T06:44:46.980Z,95439.00
2023-04-03T06:45:47.078Z,95437.00
2023-04-03T06:46:47.197Z,95441.00
2023-04-03T06:47:47.298Z,95441.00
2023-04-03T06:48:47.213Z,95441.00
2023-04-03T06:49:47.301Z,95441.00
2023-04-03T06:50:47.618Z,95441.00
2023-04-03T06:51:47.410Z,95443.00
2023-04-03T06:52:47.556Z,95447.00
2023-04-03T06:53:47.652Z,95443.00
2023-04-03T06:54:47.527Z,95447.00
2023-04-03T06:55:47.584Z,95447.00
2023-04-03T06:56:47.654Z,95447.00
2023-04-03T06:57:47.709Z,95447.00
2023-04-03T06:58:47.772Z,95447.00
2023-04-03T06:59:47.863Z,95447.00
2023-04-03T07:00:47.844Z,95445.00
2023-04-03T07:01:47.906Z,95447.00
2023-04-03T07:02:48.214Z,95453.00
2023-04-03T07:03:48.022Z,95451.00
2023-04-03T07:04:48.150Z,95453.00
2023-04-03T07:05:48.230Z,95458.00
2023-04-03T07:06:48.331Z,95453.00
2023-04-03T07:07:48.440Z,95453.00
2023-04-03T07:08:48.352Z,95453.00
2023-04-03T07:09:48.438Z,95453.00
2023-04-03T07:10:48.469Z,95456.00
2023-04-03T07:11:48.573Z,95455.00
2023-04-03T07:12:48.666Z,95456.00
2023-04-03T07:13:48.669Z,95455.00
2023-04-03T07:14:48.701Z,95460.00
2023-04-03T07:15:48.799Z,95458.00
2023-04-03T07:16:48.830Z,95456.00
2023-04-03T07:17:49.070Z,95456.00
2023-04-03T07:18:48.907Z,95456.00
2023-04-03T07:19:49.742Z,95460.00
2023-04-03T07:20:48.939Z,95460.00
2023-04-03T07:21:49.046Z,95462.00
2023-04-03T07:22:48.979Z,95462.00
2023-04-03T07:24:49.080Z,95466.00
2023-04-03T07:25:49.131Z,95466.00
2023-04-03T07:26:49.070Z,95466.00
2023-04-03T07:27:49.085Z,95466.00
2023-04-03T07:28:56.684Z,95466.00
2023-04-03T07:29:49.060Z,95468.00
2023-04-03T07:30:49.061Z,95470.00
2023-04-03T07:31:49.098Z,95466.00
2023-04-03T07:32:49.104Z,95466.00
2023-04-03T07:33:49.022Z,95466.00
2023-04-03T07:34:49.020Z,95470.00
2023-04-03T07:35:49.040Z,95472.00
2023-04-03T07:36:48.984Z,95472.00
2023-04-03T07:37:49.018Z,95472.00
2023-04-03T07:38:48.988Z,95474.00
2023-04-03T07:39:48.963Z,95474.00
2023-04-03T07:40:48.968Z,95476.00
2023-04-03T07:41:49.016Z,95476.00
2023-04-03T07:42:48.979Z,95476.00
2023-04-03T07:43:48.967Z,95478.00
2023-04-03T07:44:48.947Z,95478.00
2023-04-03T07:45:48.974Z,95476.00
2023-04-03T07:46:48.963Z,95474.00
2023-04-03T07:47:48.979Z,95476.00
2023-04-03T07:48:48.905Z,95478.00
2023-04-03T07:49:48.930Z,95478.00
2023-04-03T07:50:48.907Z,95474.00
2023-04-03T07:51:48.915Z,95478.00
2023-04-03T07:52:48.924Z,95476.00
2023-04-03T07:53:48.906Z,95478.00
2023-04-03T07:54:48.914Z,95476.00
2023-04-03T07:55:48.891Z,95480.00
2023-04-03T07:56:48.873Z,95480.00
2023-04-03T07:57:48.952Z,95478.00
2023-04-03T07:58:48.864Z,95484.00
2023-04-03T07:59:48.853Z,95480.00
2023-04-03T08:00:48.848Z,95480.00
2023-04-03T08:01:48.784Z,95478.00
2023-04-03T08:02:48.916Z,95478.00
2023-04-03T08:03:48.954Z,95478.00
2023-04-03T08:04:48.889Z,95480.00
2023-04-03T08:05:48.834Z,95476.00
2023-04-03T08:06:48.786Z,95480.00
2023-04-03T08:07:48.854Z,95480.00
2023-04-03T08:08:48.782Z,95478.00
2023-04-03T08:09:48.786Z,95476.00
2023-04-03T08:10:48.755Z,95478.00
2023-04-03T08:11:48.771Z,95476.00
2023-04-03T08:12:48.778Z,95478.00
2023-04-03T08:13:48.764Z,95478.00
2023-04-03T08:14:48.698Z,95478.00
2023-04-03T08:15:48.709Z,95480.00
2023-04-03T08:16:48.738Z,95478.00
2023-04-03T08:17:48.772Z,95480.00
2023-04-03T08:18:48.717Z,95482.00
2023-04-03T08:19:48.671Z,95480.00
2023-04-03T08:20:48.697Z,95484.00
2023-04-03T08:21:48.681Z,95482.00
2023-04-03T08:22:48.676Z,95480.00
2023-04-03T08:23:48.678Z,95478.00
2023-04-03T08:24:58.529Z,95478.00
2023-04-03T08:25:49.635Z,95478.00
2023-04-03T08:26:48.708Z,95480.00
2023-04-03T08:27:48.682Z,95484.00
2023-04-03T08:28:48.622Z,95480.00
2023-04-03T08:29:48.646Z,95482.00
2023-04-03T08:30:48.658Z,95482.00
2023-04-03T08:31:48.667Z,95480.00
2023-04-03T08:32:48.659Z,95478.00
2023-04-03T08:33:48.690Z,95480.00
2023-04-03T08:34:48.728Z,95476.00
2023-04-03T08:35:48.826Z,95478.00
2023-04-03T08:36:48.798Z,95478.00
2023-04-03T08:37:48.949Z,95476.00
2023-04-03T08:38:48.850Z,95474.00
2023-04-03T08:39:48.856Z,95476.00
2023-04-03T08:40:48.818Z,95476.00
2023-04-03T08:41:49.118Z,95478.00
2023-04-03T08:42:48.975Z,95480.00
2023-04-03T08:43:48.983Z,95478.00
2023-04-03T08:44:49.032Z,95478.00
2023-04-03T08:45:49.325Z,95476.00
2023-04-03T08:46:49.222Z,95478.00
2023-04-03T08:47:49.325Z,95480.00
2023-04-03T08:48:49.312Z,95480.00
2023-04-03T08:49:49.407Z,95480.00
2023-04-03T08:50:49.425Z,95478.00
2023-04-03T08:51:49.437Z,95478.00
2023-04-03T08:52:49.515Z,95476.00
2023-04-03T08:53:49.569Z,95476.00
2023-04-03T08:54:49.649Z,95474.00
2023-04-03T08:55:49.630Z,95472.00
2023-04-03T08:56:49.713Z,95474.00
2023-04-03T08:57:49.673Z,95476.00
2023-04-03T08:58:49.697Z,95472.00
2023-04-03T08:59:49.720Z,95478.00
2023-04-03T09:00:49.782Z,95474.00
2023-04-03T09:01:49.874Z,95474.00
2023-04-03T09:02:49.878Z,95474.00
2023-04-03T09:03:49.946Z,95476.00
2023-04-03T09:04:49.891Z,95472.00
2023-04-03T09:05:49.911Z,95472.00
2023-04-03T09:06:49.972Z,95474.00
2023-04-03T09:07:50.146Z,95478.00
2023-04-03T09:08:49.930Z,95476.00
2023-04-03T09:09:50.002Z,95474.00
2023-04-03T09:10:50.046Z,95476.00
2023-04-03T09:11:50.052Z,95478.00
2023-04-03T09:12:50.056Z,95480.00
2023-04-03T09:13:50.139Z,95478.00
2023-04-03T09:14:50.075Z,95476.00
2023-04-03T09:15:50.146Z,95474.00
2023-04-03T09:16:50.184Z,95476.00
2023-04-03T09:17:50.252Z,95474.00
2023-04-03T09:18:50.225Z,95478.00
2023-04-03T09:19:50.364Z,95476.00
2023-04-03T09:20:50.300Z,95474.00
2023-04-03T09:21:50.297Z,95474.00
2023-04-03T09:22:52.753Z,95476.00
2023-04-03T09:23:51.109Z,95476.00
2023-04-03T09:24:50.305Z,95474.00
2023-04-03T09:25:50.347Z,95476.00
2023-04-03T09:26:50.303Z,95470.00
2023-04-03T09:27:50.315Z,95470.00
2023-04-03T09:28:51.097Z,95470.00
2023-04-03T09:29:50.268Z,95470.00
2023-04-03T09:30:50.281Z,95470.00
2023-04-03T09:31:50.303Z,95470.00
2023-04-03T09:32:50.289Z,95468.00
2023-04-03T09:33:50.312Z,95466.00
2023-04-03T09:34:50.244Z,95464.00
2023-04-03T09:35:50.278Z,95462.00
2023-04-03T09:36:50.217Z,95464.00
2023-04-03T09:37:50.275Z,95462.00
2023-04-03T09:38:50.209Z,95460.00
2023-04-03T09:39:50.197Z,95462.00
2023-04-03T09:40:50.254Z,95462.00
2023-04-03T09:41:50.224Z,95455.00
2023-04-03T09:42:55.449Z,95460.00
2023-04-03T09:43:51.184Z,95456.00
2023-04-03T09:44:50.169Z,95455.00
2023-04-03T09:45:50.177Z,95451.00
2023-04-03T09:46:50.191Z,95458.00
2023-04-03T09:47:50.163Z,95449.00
2023-04-03T09:48:54.969Z,95449.00
2023-04-03T09:49:51.185Z,95449.00
2023-04-03T09:50:50.147Z,95449.00
2023-04-03T09:51:50.106Z,95447.00
2023-04-03T09:52:50.127Z,95451.00
2023-04-03T09:53:50.125Z,95447.00
2023-04-03T09:54:50.078Z,95449.00
2023-04-03T09:55:50.071Z,95443.00
2023-04-03T09:56:50.130Z,95445.00
2023-04-03T09:57:51.529Z,95447.00
2023-04-03T09:58:51.160Z,95447.00
2023-04-03T09:59:50.058Z,95449.00
2023-04-03T10:00:50.130Z,95447.00
2023-04-03T10:01:50.067Z,95439.00
2023-04-03T10:02:50.049Z,95445.00
2023-04-03T10:03:50.061Z,95439.00
2023-04-03T10:05:06.394Z,95439.00
2023-04-03T10:05:51.098Z,95441.00
2023-04-03T10:06:50.020Z,95441.00
2023-04-03T10:07:58.277Z,95437.00
2023-04-03T10:08:51.039Z,95441.00
2023-04-03T10:09:50.013Z,95439.00
2023-04-03T10:10:50.012Z,95445.00
2023-04-03T10:11:50.004Z,95439.00
2023-04-03T10:12:50.000Z,95441.00
2023-04-03T10:13:51.126Z,95439.00
2023-04-03T10:14:50.029Z,95435.00
2023-04-03T10:15:49.972Z,95437.00
2023-04-03T10:16:49.967Z,95445.00
2023-04-03T10:17:50.034Z,95437.00
2023-04-03T10:18:49.998Z,95435.00
2023-04-03T10:19:49.986Z,95443.00
2023-04-03T10:20:50.036Z,95437.00
2023-04-03T10:21:50.118Z,95437.00
2023-04-03T10:22:50.076Z,95437.00
2023-04-03T10:23:50.584Z,95445.00
2023-04-03T10:24:50.136Z,95447.00
2023-04-03T10:25:50.188Z,95447.00
2023-04-03T10:26:50.245Z,95445.00
2023-04-03T10:27:50.256Z,95439.00
2023-04-03T10:28:50.311Z,95441.00
2023-04-03T10:29:50.335Z,95443.00
2023-04-03T10:30:50.377Z,95439.00
2023-04-03T10:31:50.450Z,95437.00
2023-04-03T10:32:50.536Z,95447.00
2023-04-03T10:33:50.509Z,95447.00
2023-04-03T10:34:58.611Z,95443.00
2023-04-03T10:35:51.513Z,95439.00
2023-04-03T10:36:50.595Z,95439.00
2023-04-03T10:37:50.579Z,95437.00
2023-04-03T10:38:50.520Z,95439.00
2023-04-03T10:39:50.481Z,95439.00
2023-04-03T10:40:50.511Z,95441.00
2023-04-03T10:41:51.485Z,95435.00
2023-04-03T10:42:50.456Z,95443.00
2023-04-03T10:43:50.466Z,95435.00
2023-04-03T10:44:50.486Z,95439.00
2023-04-03T10:45:50.546Z,95437.00
2023-04-03T10:46:50.534Z,95441.00
2023-04-03T10:47:50.618Z,95439.00
2023-04-03T10:48:50.597Z,95439.00
2023-04-03T10:49:59.432Z,95443.00
2023-04-03T10:50:51.638Z,95447.00
2023-04-03T10:51:50.635Z,95445.00
2023-04-03T10:52:50.589Z,95441.00
2023-04-03T10:53:50.670Z,95437.00
2023-04-03T10:54:50.593Z,95437.00
2023-04-03T10:55:50.608Z,95435.00
2023-04-03T10:56:55.322Z,95435.00
2023-04-03T10:57:51.637Z,95431.00
2023-04-03T10:58:50.576Z,95437.00
2023-04-03T10:59:50.581Z,95441.00
2023-04-03T11:00:50.573Z,95435.00
2023-04-03T11:01:50.594Z,95435.00
2023-04-03T11:02:50.655Z,95433.00
2023-04-03T11:03:50.651Z,95431.00
2023-04-03T11:04:51.530Z,95431.00
2023-04-03T11:05:50.494Z,95447.00
2023-04-03T11:06:50.520Z,95435.00
2023-04-03T11:07:50.494Z,95439.00
2023-04-03T11:08:50.472Z,95429.00
2023-04-03T11:09:50.561Z,95429.00
2023-04-03T11:10:50.504Z,95435.00
2023-04-03T11:11:50.445Z,95439.00
2023-04-03T11:12:50.464Z,95433.00
2023-04-03T11:13:50.476Z,95433.00
2023-04-03T11:14:50.531Z,95435.00
2023-04-03T11:15:50.556Z,95429.00
2023-04-03T11:16:54.002Z,95427.00
2023-04-03T11:17:50.574Z,95417.00
2023-04-03T11:18:50.589Z,95429.00
2023-04-03T11:19:50.575Z,95427.00
2023-04-03T11:20:50.513Z,95427.00
2023-04-03T11:21:50.533Z,95427.00
2023-04-03T11:22:50.552Z,95435.00
2023-04-03T11:23:50.547Z,95425.00
2023-04-03T11:24:50.496Z,95427.00
2023-04-03T11:25:50.562Z,95427.00
2023-04-03T11:26:50.527Z,95425.00
2023-04-03T11:27:50.463Z,95417.00
2023-04-03T11:28:50.525Z,95425.00
2023-04-03T11:29:50.481Z,95427.00
2023-04-03T11:30:51.869Z,95427.00
2023-04-03T11:31:50.514Z,95433.00
2023-04-03T11:32:50.552Z,95427.00
2023-04-03T11:33:50.558Z,95429.00
2023-04-03T11:34:50.501Z,95427.00
2023-04-03T11:35:50.595Z,95433.00
2023-04-03T11:36:50.652Z,95429.00
2023-04-03T11:37:50.573Z,95413.00
2023-04-03T11:38:50.642Z,95425.00
2023-04-03T11:39:50.620Z,95417.00
2023-04-03T11:40:50.656Z,95417.00
2023-04-03T11:41:53.268Z,95417.00
2023-04-03T11:42:50.778Z,95417.00
2023-04-03T11:43:50.714Z,95417.00
2023-04-03T11:44:50.724Z,95429.00
2023-04-03T11:45:50.694Z,95425.00
2023-04-03T11:46:50.732Z,95415.00
2023-04-03T11:47:50.728Z,95425.00
2023-04-03T11:48:50.794Z,95427.00